Time;durP1;ratioP1;P1;durP2;ratioP2;P2;SDS_P1;SDS_P2;PMS_P1;PMS_P2;Temp;Humidity;BMP_temperature;BMP_pressure;BME280_temperature;BME280_humidity;BME280_pressure;Samples;Min_cycle;Max_cycle;Signal;HPM_P1;HPM_P2
2022/10/16 00:01:19;;;;;;;13.00;6.13;;;;;;;18.77;65.64;101107.47;4989825;28;20098;-63
2022/10/16 00:03:46;;;;;;;13.15;6.38;;;;;;;18.80;65.32;101106.13;4988918;28;20511;-61
2022/10/16 00:06:14;;;;;;;17.35;6.43;;;;;;;18.72;65.42;101105.50;4992617;28;20475;-63
2022/10/16 00:08:41;;;;;;;16.15;6.45;;;;;;;18.67;65.83;101105.44;4982940;23;20546;-65
2022/10/16 00:11:15;;;;;;;11.40;6.80;;;;;;;18.61;65.76;101092.88;4990367;28;20495;-64
2022/10/16 00:13:43;;;;;;;13.40;6.87;;;;;;;18.45;66.27;101093.75;4986335;28;20081;-62
2022/10/16 00:16:11;;;;;;;12.65;6.45;;;;;;;18.30;67.10;101096.25;4992382;28;20038;-63
2022/10/16 00:18:37;;;;;;;8.98;6.10;;;;;;;18.42;66.31;101099.66;4985609;28;20482;-63
2022/10/16 00:21:14;;;;;;;12.68;6.10;;;;;;;18.41;66.44;101092.63;4992418;28;20364;-64
2022/10/16 00:23:41;;;;;;;8.48;5.97;;;;;;;18.31;66.84;101103.31;4989465;28;20034;-64
2022/10/16 00:26:10;;;;;;;11.32;6.03;;;;;;;18.39;67.01;101092.06;4989022;28;20065;-63
2022/10/16 00:28:37;;;;;;;11.48;6.35;;;;;;;18.30;67.35;101093.56;4981787;28;20074;-62
2022/10/16 00:31:11;;;;;;;14.35;5.97;;;;;;;18.20;67.83;101096.94;4991030;28;20034;-62
2022/10/16 00:33:39;;;;;;;10.77;5.93;;;;;;;18.19;68.11;101093.41;4994857;28;20030;-63
2022/10/16 00:36:06;;;;;;;13.45;6.43;;;;;;;18.26;67.74;101087.81;4995370;28;20053;-64
2022/10/16 00:38:33;;;;;;;11.75;5.93;;;;;;;18.07;68.02;101095.41;4983636;28;20431;-63
2022/10/16 00:41:00;;;;;;;13.57;6.57;;;;;;;17.97;68.45;101092.56;4976901;28;20414;-65
2022/10/16 00:43:35;;;;;;;24.30;14.73;;;;;;;17.99;68.76;101086.88;4994088;28;20498;-66
2022/10/16 00:46:03;;;;;;;18.27;8.02;;;;;;;17.98;68.63;101094.19;4994175;28;20038;-65
2022/10/16 00:48:30;;;;;;;12.15;6.43;;;;;;;18.02;68.41;101095.34;4982452;28;20042;-65
2022/10/16 00:50:58;;;;;;;14.38;6.88;;;;;;;17.67;69.41;101092.91;4986478;28;20060;-66
2022/10/16 00:53:25;;;;;;;10.63;6.63;;;;;;;17.58;70.22;101092.47;4982659;28;20023;-65
2022/10/16 00:55:52;;;;;;;13.43;5.65;;;;;;;17.62;69.87;101090.94;4991331;28;20037;-65
2022/10/16 00:58:19;;;;;;;13.57;6.35;;;;;;;17.57;70.13;101088.13;4992193;28;20077;-65
2022/10/16 01:00:45;;;;;;;13.70;6.57;;;;;;;17.54;70.46;101096.75;4960155;28;20031;-65
2022/10/16 01:03:30;;;;;;;12.75;6.40;;;;;;;17.58;70.38;101094.38;4969702;28;20090;-65
2022/10/16 01:06:08;;;;;;;12.63;6.07;;;;;;;17.55;70.47;101101.09;4976300;28;20419;-66
2022/10/16 01:08:57;;;;;;;14.32;6.75;;;;;;;17.60;69.93;101103.91;4975347;28;20043;-65
2022/10/16 01:11:34;;;;;;;15.35;7.03;;;;;;;17.53;70.78;101095.09;4967096;28;20039;-66
2022/10/16 01:14:08;;;;;;;12.30;6.07;;;;;;;17.42;70.96;101102.22;4957670;28;20074;-66
2022/10/16 01:16:41;;;;;;;14.43;7.07;;;;;;;17.38;71.21;101106.50;4956387;29;20494;-65
2022/10/16 01:19:20;;;;;;;18.27;6.55;;;;;;;17.32;71.81;101101.22;4969477;28;20765;-65
2022/10/16 01:21:51;;;;;;;13.88;6.30;;;;;;;17.35;71.48;101106.16;4957693;28;20401;-66
2022/10/16 01:24:31;;;;;;;11.55;6.07;;;;;;;17.19;72.22;101106.97;4956354;28;20113;-65
2022/10/16 01:27:08;;;;;;;12.77;6.30;;;;;;;17.25;71.80;101104.09;4956352;28;20038;-65
2022/10/16 01:29:44;;;;;;;13.20;6.97;;;;;;;17.21;71.82;101113.75;4956276;29;20083;-67
2022/10/16 01:32:36;;;;;;;13.90;7.03;;;;;;;17.30;71.66;101103.38;4968699;28;20063;-65
2022/10/16 01:35:10;;;;;;;13.77;6.60;;;;;;;17.24;71.48;101104.34;4958304;28;20027;-65
2022/10/16 01:38:38;;;;;;;12.07;6.57;;;;;;;17.28;71.84;101119.03;4967366;28;20435;-65
2022/10/16 01:41:12;;;;;;;12.75;6.88;;;;;;;17.33;71.41;101108.31;4907340;29;20036;-59
2022/10/16 01:43:53;;;;;;;14.93;7.20;;;;;;;17.32;71.50;101109.34;4897269;29;20041;-65
2022/10/16 01:46:22;;;;;;;18.48;7.93;;;;;;;17.10;71.99;101112.78;4939721;28;20073;-63
2022/10/16 01:48:51;;;;;;;17.35;6.75;;;;;;;17.18;71.86;101108.03;4963953;28;20423;-64
2022/10/16 01:51:20;;;;;;;19.70;7.78;;;;;;;17.33;71.09;101109.13;4973727;28;20368;-64
2022/10/16 01:53:53;;;;;;;11.43;7.15;;;;;;;17.34;71.17;101108.06;4957526;28;20031;-64
2022/10/16 01:56:22;;;;;;;12.52;6.93;;;;;;;17.25;71.19;101114.09;4969821;28;20031;-64
2022/10/16 01:59:09;;;;;;;14.90;7.32;;;;;;;17.16;71.70;101111.00;4990743;28;20062;-64
2022/10/16 02:01:39;;;;;;;13.85;7.18;;;;;;;17.17;71.86;101115.34;4985103;28;20034;-66
2022/10/16 02:04:17;;;;;;;16.85;7.53;;;;;;;17.18;71.95;101119.66;4989168;28;20096;-66
2022/10/16 02:06:43;;;;;;;14.05;7.45;;;;;;;17.29;71.48;101124.19;4974904;28;20030;-65
2022/10/16 02:09:10;;;;;;;15.75;7.63;;;;;;;17.33;71.30;101114.53;4973559;28;20038;-66
2022/10/16 02:11:36;;;;;;;12.07;6.88;;;;;;;17.32;71.33;101112.91;4974871;28;20053;-65
2022/10/16 02:14:05;;;;;;;12.18;6.85;;;;;;;17.36;71.16;101118.63;4983368;28;20026;-66
2022/10/16 02:16:40;;;;;;;12.45;6.93;;;;;;;17.23;71.63;101127.06;4965917;28;20388;-66
2022/10/16 02:19:07;;;;;;;15.93;7.55;;;;;;;17.28;71.33;101124.44;4971145;28;20034;-66
2022/10/16 02:21:44;;;;;;;18.55;8.30;;;;;;;17.25;71.80;101120.34;4975178;28;20146;-65
2022/10/16 02:24:46;;;;;;;13.23;7.45;;;;;;;17.38;71.16;101124.63;4973631;28;20061;-66
2022/10/16 02:27:21;;;;;;;10.65;7.43;;;;;;;17.39;70.97;101123.56;4956574;28;20047;-66
2022/10/16 02:29:54;;;;;;;15.00;7.32;;;;;;;17.30;71.81;101127.72;4986766;28;20026;-66
2022/10/16 02:32:24;;;;;;;11.27;6.82;;;;;;;17.38;71.39;101135.47;4989021;28;20114;-66
2022/10/16 02:34:51;;;;;;;11.02;7.13;;;;;;;17.34;71.31;101137.00;4955009;28;20436;-66
2022/10/16 02:37:18;;;;;;;12.20;6.93;;;;;;;17.22;71.77;101139.78;4954812;29;20027;-65
2022/10/16 02:39:45;;;;;;;16.73;7.95;;;;;;;17.39;71.48;101143.31;4973797;28;20139;-66
2022/10/16 02:42:13;;;;;;;16.50;7.97;;;;;;;17.38;71.61;101149.00;4974226;28;20113;-65
2022/10/16 02:44:39;;;;;;;13.35;7.25;;;;;;;17.28;71.98;101141.50;4972564;28;20031;-65
2022/10/16 02:47:06;;;;;;;17.42;8.45;;;;;;;17.34;72.04;101148.66;4973933;28;20504;-65
2022/10/16 02:49:33;;;;;;;14.60;7.25;;;;;;;17.27;72.08;101147.16;4971843;28;20062;-65
2022/10/16 02:51:59;;;;;;;19.08;7.78;;;;;;;17.29;71.59;101151.25;4956699;28;20808;-65
2022/10/16 02:54:25;;;;;;;19.52;7.10;;;;;;;17.32;71.43;101150.78;4972820;28;20027;-65
2022/10/16 02:56:51;;;;;;;11.98;7.22;;;;;;;17.39;71.27;101153.31;4968568;28;20110;-65
2022/10/16 02:59:18;;;;;;;15.10;7.93;;;;;;;17.35;71.75;101154.88;4973076;28;20407;-64
2022/10/16 03:01:44;;;;;;;15.65;7.90;;;;;;;17.23;72.31;101154.94;4972172;28;20093;-64
2022/10/16 03:04:10;;;;;;;12.85;7.32;;;;;;;17.28;71.83;101154.22;4970258;28;20065;-65
2022/10/16 03:06:36;;;;;;;17.20;8.13;;;;;;;17.28;72.12;101156.91;4973231;28;20073;-64
2022/10/16 03:09:03;;;;;;;18.25;8.57;;;;;;;17.36;71.37;101151.09;4963903;28;20403;-64
2022/10/16 03:11:29;;;;;;;17.20;8.25;;;;;;;17.28;71.58;101156.91;4966363;28;20030;-65
2022/10/16 03:13:55;;;;;;;13.55;8.20;;;;;;;17.28;71.63;101156.91;4975814;28;20030;-64
2022/10/16 03:16:21;;;;;;;12.38;7.35;;;;;;;17.43;71.20;101162.59;4973121;28;20078;-64
2022/10/16 03:18:50;;;;;;;17.33;7.95;;;;;;;17.39;70.62;101156.84;4983036;28;20026;-64
2022/10/16 03:21:17;;;;;;;20.35;9.10;;;;;;;17.37;71.09;101163.56;4974456;28;20035;-64
2022/10/16 03:23:43;;;;;;;22.52;10.48;;;;;;;17.33;71.39;101163.25;4960497;28;20032;-64
2022/10/16 03:26:09;;;;;;;16.98;8.77;;;;;;;17.35;70.95;101166.50;4953904;29;20483;-64
2022/10/16 03:28:35;;;;;;;23.15;9.25;;;;;;;17.30;71.06;101162.91;4953631;29;20030;-64
2022/10/16 03:31:02;;;;;;;18.13;9.57;;;;;;;17.45;70.33;101160.47;4968191;28;20515;-64
2022/10/16 03:33:28;;;;;;;16.25;8.77;;;;;;;17.42;70.70;101163.66;4973110;28;20434;-64
2022/10/16 03:35:54;;;;;;;19.52;8.32;;;;;;;17.35;70.80;101161.09;4973139;28;20034;-64
2022/10/16 03:38:21;;;;;;;16.92;8.45;;;;;;;17.40;70.75;101163.09;4972758;28;20018;-64
2022/10/16 03:40:48;;;;;;;14.45;8.40;;;;;;;17.41;70.62;101159.31;4973194;28;20039;-64
2022/10/16 03:43:14;;;;;;;14.77;8.23;;;;;;;17.40;70.53;101158.50;4972948;28;20027;-64
2022/10/16 03:45:40;;;;;;;19.08;8.77;;;;;;;17.41;71.04;101162.84;4962567;28;20391;-64
2022/10/16 03:48:06;;;;;;;13.75;7.47;;;;;;;17.42;70.75;101161.75;4970137;28;20031;-64
2022/10/16 03:50:32;;;;;;;13.65;8.70;;;;;;;17.55;70.00;101160.66;4972679;28;20113;-64
2022/10/16 03:52:58;;;;;;;15.57;8.98;;;;;;;17.52;70.17;101163.84;4973116;28;20039;-64
2022/10/16 03:55:25;;;;;;;17.65;8.00;;;;;;;17.41;70.56;101162.00;4972772;28;20123;-64
2022/10/16 03:57:51;;;;;;;16.05;8.52;;;;;;;17.33;71.25;101162.44;4972483;28;20031;-64
2022/10/16 04:00:18;;;;;;;16.75;7.65;;;;;;;17.42;71.05;101160.94;4972654;28;20050;-65
2022/10/16 04:02:44;;;;;;;16.73;8.45;;;;;;;17.40;71.00;101163.09;4976305;28;20042;-65
2022/10/16 04:05:11;;;;;;;18.20;8.50;;;;;;;17.30;70.76;101158.31;4969472;28;20031;-64
2022/10/16 04:07:38;;;;;;;18.60;8.45;;;;;;;17.37;70.47;101158.16;4954525;28;20475;-65
2022/10/16 04:10:04;;;;;;;16.33;7.65;;;;;;;17.21;70.83;101156.22;4963024;28;20031;-65
2022/10/16 04:12:31;;;;;;;16.58;8.88;;;;;;;17.37;70.71;101155.44;4971050;28;20110;-65
2022/10/16 04:14:57;;;;;;;14.02;8.25;;;;;;;17.32;70.34;101166.16;4957542;29;20437;-65
2022/10/16 04:17:23;;;;;;;15.75;9.13;;;;;;;17.40;70.19;101169.31;4965177;28;20438;-65
2022/10/16 04:19:49;;;;;;;15.32;8.18;;;;;;;17.33;70.52;101173.25;4976662;28;20037;-64
2022/10/16 04:22:16;;;;;;;23.80;9.40;;;;;;;17.27;70.88;101166.09;4975186;28;20035;-65
2022/10/16 04:24:42;;;;;;;14.40;9.13;;;;;;;17.39;70.74;101169.56;4972114;28;20460;-64
2022/10/16 04:27:08;;;;;;;21.83;9.00;;;;;;;17.33;70.51;101168.66;4961933;28;20039;-64
2022/10/16 04:29:34;;;;;;;17.27;8.88;;;;;;;17.28;70.88;101170.44;4976424;28;20109;-64
2022/10/16 04:32:00;;;;;;;19.70;8.68;;;;;;;17.41;70.66;101179.06;4975265;28;20034;-65
2022/10/16 04:34:26;;;;;;;15.60;8.80;;;;;;;17.36;70.79;101178.97;4976459;28;20085;-65
2022/10/16 04:36:53;;;;;;;15.82;8.20;;;;;;;17.33;70.45;101173.25;4974965;28;20023;-64
2022/10/16 04:39:19;;;;;;;16.85;7.95;;;;;;;17.45;70.56;101178.59;4975970;28;20033;-65
2022/10/16 04:41:45;;;;;;;19.35;9.02;;;;;;;17.49;70.55;101174.31;4974888;28;20384;-64
2022/10/16 04:44:11;;;;;;;20.48;8.95;;;;;;;17.39;70.51;101178.50;4975013;28;20053;-65
2022/10/16 04:46:37;;;;;;;18.30;7.72;;;;;;;17.24;71.12;101185.50;4956723;28;20469;-65
2022/10/16 04:49:04;;;;;;;15.98;8.10;;;;;;;17.25;71.20;101182.56;4962178;28;20037;-65
2022/10/16 04:51:30;;;;;;;24.67;8.10;;;;;;;17.33;70.88;101178.66;4976000;28;20035;-65
2022/10/16 04:53:56;;;;;;;13.75;7.93;;;;;;;17.41;70.77;101186.38;4973860;28;20090;-65
2022/10/16 04:56:22;;;;;;;17.63;8.05;;;;;;;17.37;70.62;101191.44;4975529;28;20027;-65
2022/10/16 04:58:49;;;;;;;14.80;7.93;;;;;;;17.46;70.33;101186.47;4975008;28;20034;-65
2022/10/16 05:01:15;;;;;;;16.55;7.70;;;;;;;17.49;70.16;101194.09;4975448;28;20038;-65
2022/10/16 05:03:41;;;;;;;17.77;7.65;;;;;;;17.49;70.26;101194.09;4971940;28;20093;-66
2022/10/16 05:06:08;;;;;;;19.33;8.25;;;;;;;17.41;70.49;101197.19;4975273;28;20155;-65
2022/10/16 05:08:35;;;;;;;17.52;8.63;;;;;;;17.46;70.20;101189.16;4973741;28;20435;-62
2022/10/16 05:11:01;;;;;;;14.05;6.90;;;;;;;17.49;69.79;101201.38;4974685;28;20518;-60
2022/10/16 05:13:28;;;;;;;13.23;7.38;;;;;;;17.40;70.40;101206.38;4974259;28;20035;-65
2022/10/16 05:15:54;;;;;;;16.30;7.47;;;;;;;17.39;70.29;101210.97;4975861;28;20110;-65
2022/10/16 05:18:20;;;;;;;14.23;7.78;;;;;;;17.50;70.29;101211.97;4974579;28;20031;-64
2022/10/16 05:20:46;;;;;;;17.05;7.50;;;;;;;17.49;70.23;101212.19;4974284;28;20019;-65
2022/10/16 05:23:12;;;;;;;12.18;8.30;;;;;;;17.50;70.16;101217.41;4963500;28;20110;-65
2022/10/16 05:25:39;;;;;;;13.77;7.57;;;;;;;17.48;69.86;101222.22;4962796;28;20023;-65
2022/10/16 05:28:05;;;;;;;14.00;7.85;;;;;;;17.36;70.44;101218.75;4938755;29;20027;-65
2022/10/16 05:30:31;;;;;;;15.50;7.63;;;;;;;17.34;70.38;101226.28;4971874;28;20043;-65
2022/10/16 05:32:57;;;;;;;14.55;7.78;;;;;;;17.37;70.56;101228.50;4975253;28;20034;-65
2022/10/16 05:35:23;;;;;;;14.93;7.07;;;;;;;17.45;70.19;101227.31;4974202;28;20686;-65
2022/10/16 05:37:50;;;;;;;20.08;7.68;;;;;;;17.56;69.34;101231.84;4974834;28;20031;-65
2022/10/16 05:40:16;;;;;;;15.27;7.40;;;;;;;17.48;69.94;101224.09;4974090;28;20033;-64
2022/10/16 05:42:42;;;;;;;15.82;7.43;;;;;;;17.39;70.02;101221.78;4956129;28;20039;-65
2022/10/16 05:45:11;;;;;;;14.68;7.38;;;;;;;17.34;70.33;101223.59;4972644;28;20035;-65
2022/10/16 05:47:38;;;;;;;16.20;7.50;;;;;;;17.33;70.49;101227.34;4973618;28;20349;-65
2022/10/16 05:50:04;;;;;;;14.98;7.60;;;;;;;17.50;69.78;101222.81;4973809;28;20030;-64
2022/10/16 05:52:30;;;;;;;13.02;7.30;;;;;;;17.42;69.82;101226.72;4973987;28;20543;-65
2022/10/16 05:54:57;;;;;;;13.23;7.53;;;;;;;17.48;69.62;101224.91;4974804;28;20080;-65
2022/10/16 05:57:23;;;;;;;14.15;7.55;;;;;;;17.47;69.97;101225.16;4974492;28;20030;-65
2022/10/16 05:59:49;;;;;;;14.13;7.43;;;;;;;17.51;69.59;101219.03;4973532;28;20034;-64
2022/10/16 06:02:15;;;;;;;14.90;8.07;;;;;;;17.54;69.57;101218.53;4973184;28;20038;-64
2022/10/16 06:04:41;;;;;;;11.68;7.55;;;;;;;17.63;69.63;101221.69;4974609;28;20031;-62
2022/10/16 06:07:08;;;;;;;15.90;8.20;;;;;;;17.51;69.29;101223.63;4965695;28;20105;-63
2022/10/16 06:09:34;;;;;;;14.57;7.75;;;;;;;17.49;69.36;101229.28;4955342;28;20051;-63
2022/10/16 06:12:00;;;;;;;11.30;6.78;;;;;;;17.54;69.45;101232.06;4959332;28;20038;-64
2022/10/16 06:14:27;;;;;;;14.88;7.20;;;;;;;17.46;69.50;101227.06;4958760;28;20023;-63
2022/10/16 06:16:53;;;;;;;15.65;7.85;;;;;;;17.64;68.52;101229.53;4956964;28;20037;-63
2022/10/16 06:19:19;;;;;;;15.82;7.05;;;;;;;17.64;68.46;101237.66;4974853;28;20027;-64
2022/10/16 06:21:45;;;;;;;15.45;6.93;;;;;;;17.62;69.01;101230.88;4950687;28;20042;-65
2022/10/16 06:24:12;;;;;;;19.10;8.43;;;;;;;17.53;69.36;101227.72;4955843;28;21295;-64
2022/10/16 06:26:38;;;;;;;13.98;7.00;;;;;;;17.43;69.23;101235.66;4944874;28;20034;-64
2022/10/16 06:29:04;;;;;;;15.00;7.45;;;;;;;17.41;69.79;101235.91;4954869;29;20031;-64
2022/10/16 06:31:33;;;;;;;16.70;7.25;;;;;;;17.40;69.54;101236.16;4958942;28;20695;-65
2022/10/16 06:34:00;;;;;;;13.30;7.18;;;;;;;17.38;69.41;101230.16;4972383;28;20037;-64
2022/10/16 06:36:27;;;;;;;17.48;8.30;;;;;;;17.32;69.42;101231.94;4973963;28;20031;-65
2022/10/16 06:38:53;;;;;;;13.57;7.15;;;;;;;17.21;69.75;101227.38;4981313;28;20510;-64
2022/10/16 06:41:21;;;;;;;16.15;7.43;;;;;;;17.27;69.57;101228.31;4975589;28;20341;-64
2022/10/16 06:43:48;;;;;;;15.05;7.20;;;;;;;17.17;70.35;101225.41;4959988;28;20111;-65
2022/10/16 06:46:16;;;;;;;13.25;7.43;;;;;;;17.26;70.40;101222.06;4954399;28;20369;-65
2022/10/16 06:48:43;;;;;;;14.88;6.97;;;;;;;17.39;69.93;101227.22;4954481;29;20039;-64
2022/10/16 06:51:12;;;;;;;18.27;7.72;;;;;;;17.34;69.98;101223.59;4954674;29;20019;-64
2022/10/16 06:53:41;;;;;;;14.30;7.18;;;;;;;17.32;69.57;101231.09;4973333;28;20114;-65
2022/10/16 06:56:11;;;;;;;14.27;6.95;;;;;;;17.34;69.19;101218.16;4973387;28;20023;-64
2022/10/16 06:58:38;;;;;;;14.07;7.20;;;;;;;17.31;69.41;101230.28;4973323;28;20033;-64
2022/10/16 07:01:05;;;;;;;14.30;7.43;;;;;;;17.34;69.22;101218.16;4973559;28;20042;-65
2022/10/16 07:03:32;;;;;;;17.45;7.43;;;;;;;17.28;69.61;101219.13;4973617;28;20084;-64
2022/10/16 07:06:03;;;;;;;14.50;7.75;;;;;;;17.35;69.97;101220.63;4973352;28;20383;-65
2022/10/16 07:08:33;;;;;;;11.20;7.32;;;;;;;17.32;69.94;101226.53;4973341;28;20871;-64
2022/10/16 07:11:05;;;;;;;22.88;8.90;;;;;;;17.40;69.89;101228.84;4955970;28;20432;-64
2022/10/16 07:13:34;;;;;;;13.63;7.25;;;;;;;17.41;69.80;101230.47;4973471;28;20038;-65
2022/10/16 07:16:11;;;;;;;16.73;6.97;;;;;;;17.37;70.01;101231.19;4973298;28;20488;-65
2022/10/16 07:18:40;;;;;;;13.80;6.63;;;;;;;17.44;69.94;101234.59;4973149;28;20233;-64
2022/10/16 07:21:11;;;;;;;17.77;7.63;;;;;;;17.39;69.89;101234.50;4953952;29;20110;-65
2022/10/16 07:23:38;;;;;;;15.82;7.70;;;;;;;17.35;70.15;101241.44;4953865;29;20049;-64
2022/10/16 07:26:05;;;;;;;14.95;7.75;;;;;;;17.35;69.93;101226.03;4954155;29;20032;-65
2022/10/16 07:28:32;;;;;;;12.90;7.43;;;;;;;17.48;69.59;101238.44;4966382;28;20027;-65
2022/10/16 07:31:07;;;;;;;14.20;7.63;;;;;;;17.50;69.42;101232.81;4972126;28;20066;-65
2022/10/16 07:33:34;;;;;;;;;;;;;;;17.48;69.74;101240.34;4973547;28;20035;-65
2022/10/16 07:36:01;;;;;;;14.65;7.13;;;;;;;17.34;70.48;101245.22;4971062;28;19922;-65
2022/10/16 07:38:27;;;;;;;17.27;7.32;;;;;;;17.36;69.96;101243.09;4972162;28;20495;-65
2022/10/16 07:41:02;;;;;;;16.05;8.05;;;;;;;17.37;69.90;101242.84;4972874;28;20031;-65
2022/10/16 07:43:28;;;;;;;;;;;;;;;17.34;69.79;101242.53;4972426;28;20050;-65
2022/10/16 07:45:55;;;;;;;18.70;8.10;;;;;;;17.46;69.72;101240.59;4972869;28;19918;-65
2022/10/16 07:48:22;;;;;;;13.02;7.40;;;;;;;17.49;69.50;101248.22;4972005;28;21897;-65
2022/10/16 07:50:49;;;;;;;17.25;7.88;;;;;;;17.36;70.03;101237.69;4972826;28;20372;-65
2022/10/16 07:53:16;;;;;;;12.98;7.55;;;;;;;17.37;69.69;101248.25;4971830;28;20042;-65
2022/10/16 07:55:42;;;;;;;11.82;7.55;;;;;;;17.45;69.59;101249.78;4972743;28;20027;-65
2022/10/16 07:58:08;;;;;;;17.35;8.52;;;;;;;17.43;69.77;101246.47;4970823;28;20027;-65
2022/10/16 08:00:37;;;;;;;15.52;7.32;;;;;;;17.54;68.59;101242.88;4971823;28;20080;-65
2022/10/16 08:03:03;;;;;;;13.95;7.50;;;;;;;17.44;69.32;101250.84;4957203;28;20388;-65
2022/10/16 08:05:31;;;;;;;15.32;7.35;;;;;;;17.44;69.34;101250.84;4955425;28;20038;-65
2022/10/16 08:07:58;;;;;;;15.40;7.40;;;;;;;17.51;69.06;101253.41;4968877;28;20043;-65
2022/10/16 08:10:26;;;;;;;17.80;8.00;;;;;;;17.55;68.82;101251.84;4954350;28;20476;-64
2022/10/16 08:12:53;;;;;;;14.85;8.18;;;;;;;17.53;68.81;101252.06;4972663;28;20082;-65
2022/10/16 08:15:19;;;;;;;16.85;7.00;;;;;;;17.41;69.36;101256.72;4954391;28;20514;-65
2022/10/16 08:17:58;;;;;;;14.30;7.40;;;;;;;17.46;69.61;101256.81;4971623;28;20031;-65
2022/10/16 08:20:25;;;;;;;15.20;7.45;;;;;;;17.37;69.89;101250.13;4968112;28;20023;-64
2022/10/16 08:22:51;;;;;;;19.52;7.72;;;;;;;17.48;69.34;101259.28;4972256;28;20031;-65
2022/10/16 08:25:18;;;;;;;19.35;7.85;;;;;;;17.48;69.30;101260.09;4972419;28;20027;-65
2022/10/16 08:27:44;;;;;;;14.00;7.72;;;;;;;17.41;68.77;101265.66;4971537;28;20035;-64
2022/10/16 08:30:11;;;;;;;16.05;8.23;;;;;;;17.33;69.54;101260.66;4971448;28;20039;-64
2022/10/16 08:32:37;;;;;;;15.82;8.45;;;;;;;17.43;69.48;101265.41;4954362;28;20035;-65
2022/10/16 08:35:04;;;;;;;17.63;8.45;;;;;;;17.47;69.17;101261.16;4971448;28;20033;-64
2022/10/16 08:37:32;;;;;;;15.07;8.50;;;;;;;17.54;68.65;101264.53;4971558;28;20031;-64
2022/10/16 08:39:58;;;;;;;17.80;8.40;;;;;;;17.49;69.03;101259.06;4972534;28;20031;-65
2022/10/16 08:42:32;;;;;;;17.17;8.55;;;;;;;17.60;68.79;101269.00;4971486;28;20154;-65
2022/10/16 08:45:24;;;;;;;14.80;8.05;;;;;;;17.49;69.30;101272.59;4967633;28;20094;-64
2022/10/16 08:47:50;;;;;;;16.10;8.02;;;;;;;17.54;68.45;101269.97;4954867;28;20035;-65
2022/10/16 08:50:25;;;;;;;14.50;8.10;;;;;;;17.59;68.60;101270.06;4969445;28;20126;-64
2022/10/16 08:52:51;;;;;;;16.85;8.05;;;;;;;17.41;69.57;101279.19;4975058;28;20027;-64
2022/10/16 08:55:38;;;;;;;17.73;7.93;;;;;;;17.38;69.73;101268.88;4975731;28;20052;-64
2022/10/16 08:58:34;;;;;;;16.42;8.23;;;;;;;17.51;69.85;101265.03;4974462;28;20046;-65
2022/10/16 09:01:10;;;;;;;14.48;8.25;;;;;;;17.50;69.34;101271.53;4939955;29;20046;-65
2022/10/16 09:03:55;;;;;;;16.70;8.85;;;;;;;17.61;68.99;101275.25;4957772;28;20038;-65
2022/10/16 09:06:24;;;;;;;16.25;8.85;;;;;;;17.59;68.64;101286.28;4975647;28;20062;-65
2022/10/16 09:09:14;;;;;;;13.60;8.73;;;;;;;17.60;68.48;101282.56;4974425;28;20104;-65
2022/10/16 09:11:59;;;;;;;15.63;8.50;;;;;;;17.49;69.29;101285.28;4975587;28;20113;-64
2022/10/16 09:14:50;;;;;;;19.83;8.82;;;;;;;17.43;69.58;101281.66;4974738;28;20026;-64
2022/10/16 09:17:25;;;;;;;16.17;9.05;;;;;;;17.48;69.65;101279.03;4975228;28;20035;-64
2022/10/16 09:20:15;;;;;;;18.00;9.18;;;;;;;17.49;69.58;101287.97;4974531;28;20042;-65
2022/10/16 09:22:41;;;;;;;16.27;9.13;;;;;;;17.54;69.55;101282.66;4975687;28;20035;-65
2022/10/16 09:25:14;;;;;;;18.05;9.65;;;;;;;17.57;69.50;101293.84;4974252;28;20027;-64
2022/10/16 09:27:40;;;;;;;22.48;10.27;;;;;;;17.41;69.98;101289.19;4975051;28;20022;-64
2022/10/16 09:30:15;;;;;;;18.88;10.50;;;;;;;17.50;69.56;101286.94;4974538;28;20110;-65
2022/10/16 09:32:44;;;;;;;17.42;10.57;;;;;;;17.46;69.35;101286.59;4975407;28;20166;-65
2022/10/16 09:35:24;;;;;;;19.08;10.63;;;;;;;17.34;70.10;101288.53;4974197;28;20039;-64
2022/10/16 09:37:54;;;;;;;20.00;10.55;;;;;;;17.40;70.02;101288.38;4973960;28;20027;-65
2022/10/16 09:40:35;;;;;;;21.38;11.57;;;;;;;17.35;70.32;101285.56;4975078;28;20026;-65
2022/10/16 09:43:30;;;;;;;24.05;11.52;;;;;;;17.40;69.93;101282.16;4973953;28;20457;-65
2022/10/16 09:45:59;;;;;;;25.42;12.35;;;;;;;17.37;70.35;101288.03;4961999;28;20428;-65
2022/10/16 09:48:31;;;;;;;17.20;10.80;;;;;;;17.47;69.91;101293.66;4969443;28;20097;-65
2022/10/16 09:51:03;;;;;;;21.55;11.25;;;;;;;17.35;70.30;101285.56;4974871;28;20026;-65
2022/10/16 09:53:41;;;;;;;22.73;11.95;;;;;;;17.49;70.14;101296.09;4974430;28;20550;-65
2022/10/16 09:56:09;;;;;;;19.95;11.77;;;;;;;17.46;69.94;101285.78;4974681;28;20502;-65
2022/10/16 09:58:37;;;;;;;21.42;12.98;;;;;;;17.53;69.91;101298.09;4972859;28;20663;-65
2022/10/16 10:01:03;;;;;;;21.33;12.50;;;;;;;17.58;69.51;101298.19;4973608;28;20648;-64
2022/10/16 10:03:41;;;;;;;21.45;11.82;;;;;;;17.40;70.63;101295.69;4972521;28;20444;-65
2022/10/16 10:06:18;;;;;;;25.00;12.80;;;;;;;17.38;70.36;101295.91;4974520;28;20391;-65
2022/10/16 10:08:59;;;;;;;22.80;12.70;;;;;;;17.36;70.50;101302.63;4977160;28;20528;-65
2022/10/16 10:11:40;;;;;;;26.45;12.85;;;;;;;17.41;70.47;101300.03;4974449;28;20071;-65
2022/10/16 10:14:17;;;;;;;22.88;12.85;;;;;;;17.53;69.42;101299.97;4974651;28;20089;-65
2022/10/16 10:16:44;;;;;;;26.80;12.65;;;;;;;17.47;69.68;101309.88;4974239;28;20062;-65
2022/10/16 10:19:21;;;;;;;24.48;13.05;;;;;;;17.42;70.02;101313.31;4974728;28;20109;-65
2022/10/16 10:21:49;;;;;;;18.17;12.05;;;;;;;17.48;69.89;101308.00;4974324;28;20030;-65
2022/10/16 10:24:17;;;;;;;20.60;12.07;;;;;;;17.46;70.07;101312.84;4974724;28;20365;-68
2022/10/16 10:27:13;;;;;;;26.08;12.57;;;;;;;17.36;70.55;101310.75;4974324;28;20021;-65
2022/10/16 10:29:58;;;;;;;23.00;12.93;;;;;;;17.45;69.75;101317.44;4974670;28;20030;-65
2022/10/16 10:32:36;;;;;;;24.70;13.75;;;;;;;17.58;69.52;101322.56;4974318;28;20034;-65
2022/10/16 10:35:43;;;;;;;25.00;12.25;;;;;;;17.57;69.12;101322.81;4974304;28;20049;-65
2022/10/16 10:38:16;;;;;;;24.58;12.15;;;;;;;17.57;69.35;101320.09;4961196;28;20038;-65
2022/10/16 10:40:45;;;;;;;20.90;13.07;;;;;;;17.51;69.55;101321.06;4974205;28;20030;-65
2022/10/16 10:43:29;;;;;;;22.13;12.57;;;;;;;17.33;70.17;101328.28;4957890;28;20117;-65
2022/10/16 10:46:02;;;;;;;21.97;12.20;;;;;;;17.37;70.30;101321.31;4960336;28;20035;-65
2022/10/16 10:48:31;;;;;;;19.92;11.70;;;;;;;17.35;70.39;101328.84;4973883;28;20107;-64
2022/10/16 10:51:12;;;;;;;24.05;11.50;;;;;;;17.46;70.20;101331.78;4972696;28;20027;-65
2022/10/16 10:54:06;;;;;;;19.00;10.52;;;;;;;17.54;69.88;101334.09;4973759;28;20045;-65
2022/10/16 10:56:41;;;;;;;21.40;10.75;;;;;;;17.50;69.85;101331.06;4954256;28;20102;-65
2022/10/16 10:59:16;;;;;;;;;;;;;;;17.46;70.34;101338.00;4962145;28;20034;-65
2022/10/16 11:01:50;;;;;;;21.67;11.20;;;;;;;17.46;69.98;101339.91;4954422;29;19922;-65
2022/10/16 11:04:28;;;;;;;19.88;10.88;;;;;;;17.43;70.12;101335.78;4955843;28;20235;-65
2022/10/16 11:07:20;;;;;;;22.27;10.93;;;;;;;17.42;70.05;101339.53;4973435;28;20038;-65
2022/10/16 11:10:14;;;;;;;19.35;10.82;;;;;;;17.32;70.11;101334.75;4972064;28;20050;-65
2022/10/16 11:12:46;;;;;;;18.27;10.38;;;;;;;17.36;70.32;101335.09;4970953;28;20117;-65
2022/10/16 11:15:19;;;;;;;21.45;10.77;;;;;;;17.28;70.33;101339.00;4973229;28;20026;-65
2022/10/16 11:17:54;;;;;;;21.50;11.70;;;;;;;17.33;69.70;101338.28;4972265;28;20110;-65
2022/10/16 11:20:27;;;;;;;19.80;10.48;;;;;;;17.42;69.62;101339.53;4973501;28;20037;-65
2022/10/16 11:23:00;;;;;;;22.40;10.38;;;;;;;17.35;69.71;101341.56;4973189;28;20034;-65
2022/10/16 11:25:33;;;;;;;21.52;9.93;;;;;;;17.38;69.31;101346.53;4973267;28;20037;-64
2022/10/16 11:28:03;;;;;;;17.98;10.32;;;;;;;17.37;69.83;101352.97;4972737;28;20037;-64
2022/10/16 11:30:34;;;;;;;19.63;9.93;;;;;;;17.30;69.80;101344.97;4973444;28;20027;-65
2022/10/16 11:33:12;;;;;;;19.77;10.27;;;;;;;17.37;69.42;101344.84;4972113;28;20031;-64